createdAt,value
2019-05-26T00:00:49.072Z,1005.28
2019-05-26T00:01:49.100Z,1005.22
2019-05-26T00:02:49.082Z,1005.27
2019-05-26T00:03:49.130Z,1005.28
2019-05-26T00:04:49.120Z,1005.30
2019-05-26T00:05:49.154Z,1005.27
2019-05-26T00:06:49.200Z,1005.27
2019-05-26T00:07:49.131Z,1005.27
2019-05-26T00:08:49.197Z,1005.27
2019-05-26T00:09:49.128Z,1005.22
2019-05-26T00:10:49.205Z,1005.29
2019-05-26T00:11:49.149Z,1005.30
2019-05-26T00:12:49.204Z,1005.26
2019-05-26T00:13:49.202Z,1005.28
2019-05-26T00:14:49.214Z,1005.29
2019-05-26T00:15:49.231Z,1005.34
2019-05-26T00:16:49.194Z,1005.26
2019-05-26T00:17:49.189Z,1005.24
2019-05-26T00:18:49.164Z,1005.21
2019-05-26T00:19:49.061Z,1005.25
2019-05-26T00:20:49.133Z,1005.22
2019-05-26T00:21:49.072Z,1005.22
2019-05-26T00:22:49.069Z,1005.26
2019-05-26T00:23:49.136Z,1005.25
2019-05-26T00:24:49.198Z,1005.23
2019-05-26T00:25:49.112Z,1005.20
2019-05-26T00:26:49.163Z,1005.19
2019-05-26T00:27:49.222Z,1005.17
2019-05-26T00:28:49.153Z,1005.12
2019-05-26T00:29:49.162Z,1005.14
2019-05-26T00:30:49.178Z,1005.11
2019-05-26T00:31:49.228Z,1005.10
2019-05-26T00:32:49.156Z,1005.08
2019-05-26T00:33:49.155Z,1005.12
2019-05-26T00:34:49.174Z,1005.15
2019-05-26T00:35:49.118Z,1005.14
2019-05-26T00:36:49.221Z,1005.13
2019-05-26T00:37:50.501Z,1005.09
2019-05-26T00:38:49.224Z,1005.05
2019-05-26T00:39:49.162Z,1005.07
2019-05-26T00:40:49.155Z,1005.05
2019-05-26T00:41:49.241Z,1005.05
2019-05-26T00:42:49.233Z,1005.02
2019-05-26T00:43:49.253Z,1004.99
2019-05-26T00:44:49.150Z,1004.98
2019-05-26T00:45:49.159Z,1004.95
2019-05-26T00:46:49.239Z,1004.98
2019-05-26T00:47:49.229Z,1004.99
2019-05-26T00:48:49.200Z,1004.97
2019-05-26T00:49:49.252Z,1004.96
2019-05-26T00:50:49.176Z,1004.97
2019-05-26T00:51:49.184Z,1004.99
2019-05-26T00:52:49.185Z,1004.94
2019-05-26T00:53:49.255Z,1004.95
2019-05-26T00:54:49.244Z,1004.95
2019-05-26T00:55:49.253Z,1004.90
2019-05-26T00:56:49.298Z,1004.94
2019-05-26T00:57:49.259Z,1004.93
2019-05-26T00:58:49.249Z,1004.94
2019-05-26T00:59:49.190Z,1004.93
2019-05-26T01:00:49.202Z,1004.96
2019-05-26T01:01:49.147Z,1004.92
2019-05-26T01:02:49.252Z,1004.94
2019-05-26T01:03:49.183Z,1004.92
2019-05-26T01:04:49.186Z,1004.96
2019-05-26T01:05:49.266Z,1004.94
2019-05-26T01:06:49.141Z,1004.95
2019-05-26T01:08:05.359Z,1004.99
2019-05-26T01:08:49.185Z,1004.93
2019-05-26T01:09:49.182Z,1004.99
2019-05-26T01:10:49.202Z,1004.97
2019-05-26T01:11:49.187Z,1004.93
2019-05-26T01:12:49.266Z,1004.93
2019-05-26T01:13:49.269Z,1004.88
2019-05-26T01:14:49.260Z,1004.88
2019-05-26T01:15:49.191Z,1004.88
2019-05-26T01:16:49.357Z,1004.90
2019-05-26T01:17:49.199Z,1004.90
2019-05-26T01:18:49.178Z,1004.86
2019-05-26T01:19:49.266Z,1004.84
2019-05-26T01:20:49.268Z,1004.85
2019-05-26T01:21:49.265Z,1004.85
2019-05-26T01:22:49.249Z,1004.84
2019-05-26T01:23:49.256Z,1004.82
2019-05-26T01:24:49.272Z,1004.82
2019-05-26T01:25:49.216Z,1004.84
2019-05-26T01:26:49.220Z,1004.83
2019-05-26T01:27:49.218Z,1004.83
2019-05-26T01:28:49.200Z,1004.84
2019-05-26T01:29:49.298Z,1004.83
2019-05-26T01:30:49.259Z,1004.80
2019-05-26T01:31:49.263Z,1004.76
2019-05-26T01:32:49.283Z,1004.77
2019-05-26T01:33:49.259Z,1004.76
2019-05-26T01:34:49.225Z,1004.77
2019-05-26T01:35:49.293Z,1004.76
2019-05-26T01:36:49.199Z,1004.75
2019-05-26T01:37:49.265Z,1004.78
2019-05-26T01:38:49.267Z,1004.77
2019-05-26T01:39:49.200Z,1004.81
2019-05-26T01:40:49.268Z,1004.78
2019-05-26T01:41:49.206Z,1004.78
2019-05-26T01:42:49.203Z,1004.80
2019-05-26T01:43:49.273Z,1004.78
2019-05-26T01:44:49.287Z,1004.79
2019-05-26T01:45:49.202Z,1004.80
2019-05-26T01:46:49.175Z,1004.81
2019-05-26T01:47:49.208Z,1004.79
2019-05-26T01:48:49.264Z,1004.84
2019-05-26T01:49:49.222Z,1004.78
2019-05-26T01:50:49.175Z,1004.79
2019-05-26T01:51:49.289Z,1004.80
2019-05-26T01:52:49.173Z,1004.74
2019-05-26T01:53:49.173Z,1004.78
2019-05-26T01:54:49.163Z,1004.79
2019-05-26T01:55:49.158Z,1004.77
2019-05-26T01:56:49.240Z,1004.76
2019-05-26T01:57:49.218Z,1004.80
2019-05-26T01:58:49.269Z,1004.77
2019-05-26T01:59:49.213Z,1004.73
2019-05-26T02:00:49.164Z,1004.73
2019-05-26T02:01:49.193Z,1004.73
2019-05-26T02:02:49.298Z,1004.75
2019-05-26T02:03:49.195Z,1004.74
2019-05-26T02:04:49.282Z,1004.75
2019-05-26T02:05:49.214Z,1004.77
2019-05-26T02:06:49.230Z,1004.76
2019-05-26T02:07:49.285Z,1004.75
2019-05-26T02:08:49.300Z,1004.79
2019-05-26T02:09:49.195Z,1004.79
2019-05-26T02:10:49.274Z,1004.77
2019-05-26T02:11:49.248Z,1004.74
2019-05-26T02:12:49.309Z,1004.73
2019-05-26T02:13:49.303Z,1004.73
2019-05-26T02:14:49.236Z,1004.74
2019-05-26T02:15:49.311Z,1004.75
2019-05-26T02:16:49.297Z,1004.75
2019-05-26T02:17:49.312Z,1004.72
2019-05-26T02:18:49.238Z,1004.73
2019-05-26T02:19:49.311Z,1004.73
2019-05-26T02:20:49.236Z,1004.71
2019-05-26T02:21:49.243Z,1004.75
2019-05-26T02:22:49.317Z,1004.68
2019-05-26T02:23:49.241Z,1004.70
2019-05-26T02:24:49.315Z,1004.69
2019-05-26T02:25:49.301Z,1004.66
2019-05-26T02:26:49.315Z,1004.67
2019-05-26T02:27:49.246Z,1004.70
2019-05-26T02:28:49.304Z,1004.71
2019-05-26T02:29:49.237Z,1004.74
2019-05-26T02:30:49.307Z,1004.74
2019-05-26T02:31:49.248Z,1004.74
2019-05-26T02:32:49.309Z,1004.71
2019-05-26T02:33:49.241Z,1004.71
2019-05-26T02:34:49.310Z,1004.70
2019-05-26T02:35:49.308Z,1004.65
2019-05-26T02:36:49.235Z,1004.65
2019-05-26T02:37:49.309Z,1004.66
2019-05-26T02:39:00.846Z,1004.68
2019-05-26T02:39:49.254Z,1004.75
2019-05-26T02:40:49.311Z,1004.72
2019-05-26T02:41:49.243Z,1004.70
2019-05-26T02:42:49.404Z,1004.72
2019-05-26T02:43:49.254Z,1004.69
2019-05-26T02:44:49.323Z,1004.71
2019-05-26T02:45:49.314Z,1004.68
2019-05-26T02:46:49.270Z,1004.66
2019-05-26T02:47:49.256Z,1004.66
2019-05-26T02:48:49.340Z,1004.62
2019-05-26T02:49:49.328Z,1004.63
2019-05-26T02:50:49.289Z,1004.69
2019-05-26T02:51:49.335Z,1004.66
2019-05-26T02:52:49.351Z,1004.65
2019-05-26T02:53:49.277Z,1004.65
2019-05-26T02:54:49.336Z,1004.68
2019-05-26T02:55:49.331Z,1004.65
2019-05-26T02:56:49.313Z,1004.68
2019-05-26T02:57:49.286Z,1004.65
2019-05-26T02:58:49.350Z,1004.68
2019-05-26T02:59:49.283Z,1004.69
2019-05-26T03:00:49.251Z,1004.70
2019-05-26T03:02:02.037Z,1004.66
2019-05-26T03:02:49.265Z,1004.68
2019-05-26T03:03:49.290Z,1004.63
2019-05-26T03:04:49.190Z,1004.64
2019-05-26T03:05:49.263Z,1004.64
2019-05-26T03:06:49.361Z,1004.58
2019-05-26T03:07:49.301Z,1004.61
2019-05-26T03:08:49.274Z,1004.64
2019-05-26T03:09:49.272Z,1004.61
2019-05-26T03:10:49.285Z,1004.61
2019-05-26T03:11:49.353Z,1004.62
2019-05-26T03:12:49.275Z,1004.58
2019-05-26T03:13:49.350Z,1004.56
2019-05-26T03:14:49.360Z,1004.61
2019-05-26T03:15:49.280Z,1004.58
2019-05-26T03:16:49.359Z,1004.58
2019-05-26T03:17:49.301Z,1004.57
2019-05-26T03:18:49.356Z,1004.60
2019-05-26T03:19:49.277Z,1004.57
2019-05-26T03:20:49.279Z,1004.54
2019-05-26T03:21:49.290Z,1004.56
2019-05-26T03:22:49.375Z,1004.62
2019-05-26T03:23:49.368Z,1004.56
2019-05-26T03:24:49.284Z,1004.56
2019-05-26T03:25:49.295Z,1004.56
2019-05-26T03:26:49.317Z,1004.49
2019-05-26T03:27:49.382Z,1004.52
2019-05-26T03:28:49.363Z,1004.47
2019-05-26T03:29:49.299Z,1004.48
2019-05-26T03:30:49.381Z,1004.49
2019-05-26T03:31:49.330Z,1004.51
2019-05-26T03:32:49.346Z,1004.48
2019-05-26T03:33:49.304Z,1004.51
2019-05-26T03:34:49.324Z,1004.50
2019-05-26T03:35:49.375Z,1004.52
2019-05-26T03:36:49.274Z,1004.46
2019-05-26T03:37:49.243Z,1004.48
2019-05-26T03:38:49.317Z,1004.49
2019-05-26T03:39:49.219Z,1004.49
2019-05-26T03:40:49.287Z,1004.44
2019-05-26T03:41:49.223Z,1004.43
2019-05-26T03:42:49.264Z,1004.42
2019-05-26T03:43:49.324Z,1004.42
2019-05-26T03:44:49.282Z,1004.44
2019-05-26T03:45:49.239Z,1004.46
2019-05-26T03:46:49.373Z,1004.44
2019-05-26T03:47:49.319Z,1004.42
2019-05-26T03:48:49.398Z,1004.40
2019-05-26T03:49:49.322Z,1004.42
2019-05-26T03:50:49.390Z,1004.42
2019-05-26T03:51:49.375Z,1004.44
2019-05-26T03:52:49.373Z,1004.48
2019-05-26T03:53:49.466Z,1004.41
2019-05-26T03:54:49.368Z,1004.45
2019-05-26T03:55:49.373Z,1004.43
2019-05-26T03:56:49.488Z,1004.40
2019-05-26T03:57:49.383Z,1004.41
2019-05-26T03:58:49.323Z,1004.41
2019-05-26T03:59:49.365Z,1004.45
2019-05-26T04:00:49.313Z,1004.42
2019-05-26T04:01:49.389Z,1004.37
2019-05-26T04:02:49.317Z,1004.41
2019-05-26T04:03:49.501Z,1004.44
2019-05-26T04:04:49.268Z,1004.41
2019-05-26T04:05:49.319Z,1004.38
2019-05-26T04:06:49.388Z,1004.40
2019-05-26T04:07:49.314Z,1004.40
2019-05-26T04:08:49.322Z,1004.43
2019-05-26T04:10:04.090Z,1004.36
2019-05-26T04:10:49.390Z,1004.39
2019-05-26T04:11:49.326Z,1004.31
2019-05-26T04:12:49.412Z,1004.33
2019-05-26T04:13:49.323Z,1004.32
2019-05-26T04:14:49.326Z,1004.30
2019-05-26T04:15:49.392Z,1004.34
2019-05-26T04:16:49.317Z,1004.32
2019-05-26T04:17:49.309Z,1004.34
2019-05-26T04:18:49.384Z,1004.29
2019-05-26T04:19:49.298Z,1004.28
2019-05-26T04:20:49.307Z,1004.30
2019-05-26T04:21:49.366Z,1004.29
2019-05-26T04:22:49.349Z,1004.26
2019-05-26T04:23:49.309Z,1004.28
2019-05-26T04:24:49.309Z,1004.32
2019-05-26T04:25:49.383Z,1004.28
2019-05-26T04:26:49.295Z,1004.28
2019-05-26T04:27:49.390Z,1004.26
2019-05-26T04:28:49.388Z,1004.26
2019-05-26T04:29:49.328Z,1004.21
2019-05-26T04:30:49.391Z,1004.21
2019-05-26T04:31:49.316Z,1004.21
2019-05-26T04:32:49.394Z,1004.20
2019-05-26T04:33:49.363Z,1004.19
2019-05-26T04:34:49.329Z,1004.18
2019-05-26T04:35:49.321Z,1004.20
2019-05-26T04:36:49.411Z,1004.17
2019-05-26T04:37:49.425Z,1004.17
2019-05-26T04:38:49.342Z,1004.18
2019-05-26T04:39:49.425Z,1004.15
2019-05-26T04:40:49.349Z,1004.16
2019-05-26T04:41:49.342Z,1004.12
2019-05-26T04:42:49.394Z,1004.17
2019-05-26T04:43:49.428Z,1004.14
2019-05-26T04:44:49.416Z,1004.09
2019-05-26T04:45:49.411Z,1004.12
2019-05-26T04:46:49.339Z,1004.11
2019-05-26T04:47:49.286Z,1004.12
2019-05-26T04:48:49.373Z,1004.15
2019-05-26T04:49:49.351Z,1004.14
2019-05-26T04:50:49.321Z,1004.12
2019-05-26T04:51:49.372Z,1004.15
2019-05-26T04:53:05.605Z,1004.10
2019-05-26T04:53:49.314Z,1004.03
2019-05-26T04:54:49.317Z,1004.09
2019-05-26T04:55:49.412Z,1004.06
2019-05-26T04:56:49.411Z,1004.13
2019-05-26T04:57:49.339Z,1004.13
2019-05-26T04:58:49.408Z,1004.13
2019-05-26T04:59:49.450Z,1004.15
2019-05-26T05:00:49.348Z,1004.13
2019-05-26T05:01:49.432Z,1004.11
2019-05-26T05:02:49.337Z,1004.11
2019-05-26T05:03:49.417Z,1004.11
2019-05-26T05:04:49.339Z,1004.13
2019-05-26T05:05:49.349Z,1004.13
2019-05-26T05:06:49.416Z,1004.14
2019-05-26T05:07:49.334Z,1004.19
2019-05-26T05:08:49.418Z,1004.16
2019-05-26T05:09:49.422Z,1004.17
2019-05-26T05:10:49.368Z,1004.19
2019-05-26T05:11:49.635Z,1004.16
2019-05-26T05:12:49.347Z,1004.15
2019-05-26T05:13:49.354Z,1004.17
2019-05-26T05:14:49.422Z,1004.21
2019-05-26T05:15:49.421Z,1004.22
2019-05-26T05:16:49.432Z,1004.21
2019-05-26T05:17:49.439Z,1004.24
2019-05-26T05:18:49.448Z,1004.21
2019-05-26T05:19:49.435Z,1004.15
2019-05-26T05:20:49.437Z,1004.17
2019-05-26T05:21:49.378Z,1004.22
2019-05-26T05:22:49.439Z,1004.20
2019-05-26T05:23:49.453Z,1004.19
2019-05-26T05:24:49.374Z,1004.21
2019-05-26T05:25:49.443Z,1004.17
2019-05-26T05:26:49.446Z,1004.19
2019-05-26T05:27:49.441Z,1004.17
2019-05-26T05:28:49.408Z,1004.13
2019-05-26T05:29:49.380Z,1004.17
2019-05-26T05:30:49.445Z,1004.19
2019-05-26T05:31:49.557Z,1004.18
2019-05-26T05:32:49.446Z,1004.17
2019-05-26T05:33:49.377Z,1004.14
2019-05-26T05:34:49.483Z,1004.07
2019-05-26T05:35:49.372Z,1004.07
2019-05-26T05:36:49.460Z,1004.09
2019-05-26T05:37:49.381Z,1004.10
2019-05-26T05:38:49.385Z,1004.12
2019-05-26T05:39:49.386Z,1004.10
2019-05-26T05:40:59.038Z,1004.10
2019-05-26T05:41:49.459Z,1004.10
2019-05-26T05:42:49.391Z,1004.08
2019-05-26T05:43:49.390Z,1004.06
2019-05-26T05:44:49.399Z,1004.05
2019-05-26T05:45:49.455Z,1004.03
2019-05-26T05:46:49.387Z,1004.03
2019-05-26T05:47:49.460Z,1004.08
2019-05-26T05:48:49.388Z,1004.10
2019-05-26T05:49:49.386Z,1004.08
2019-05-26T05:50:49.392Z,1004.09
2019-05-26T05:51:49.469Z,1004.06
2019-05-26T05:52:49.462Z,1004.05
2019-05-26T05:53:49.464Z,1004.08
2019-05-26T05:54:49.467Z,1004.09
2019-05-26T05:55:49.465Z,1004.05
2019-05-26T05:56:49.467Z,1004.02
2019-05-26T05:57:49.404Z,1004.01
2019-05-26T05:58:49.405Z,1004.02
2019-05-26T05:59:49.474Z,1003.98
2019-05-26T06:00:49.401Z,1004.04
2019-05-26T06:01:49.476Z,1004.06
2019-05-26T06:02:49.483Z,1004.01
2019-05-26T06:03:49.476Z,1004.05
2019-05-26T06:04:49.523Z,1004.04
2019-05-26T06:05:49.481Z,1004.00
2019-05-26T06:06:49.473Z,1004.00
2019-05-26T06:07:49.484Z,1003.98
2019-05-26T06:08:49.427Z,1004.00
2019-05-26T06:09:49.480Z,1003.91
2019-05-26T06:10:49.406Z,1003.88
2019-05-26T06:11:53.266Z,1003.90
2019-05-26T06:12:49.477Z,1003.89
2019-05-26T06:13:49.360Z,1003.90
2019-05-26T06:14:49.442Z,1003.95
2019-05-26T06:15:49.418Z,1003.87
2019-05-26T06:16:49.480Z,1003.88
2019-05-26T06:17:49.606Z,1003.90
2019-05-26T06:18:49.486Z,1003.94
2019-05-26T06:19:49.482Z,1003.88
2019-05-26T06:20:49.494Z,1003.88
2019-05-26T06:21:49.434Z,1003.86
2019-05-26T06:22:49.374Z,1003.86
2019-05-26T06:23:49.441Z,1003.88
2019-05-26T06:24:49.417Z,1003.91
2019-05-26T06:25:49.497Z,1003.92
2019-05-26T06:26:49.421Z,1003.90
2019-05-26T06:27:49.426Z,1003.90
2019-05-26T06:28:52.323Z,1003.88
2019-05-26T06:29:58.526Z,1003.85
2019-05-26T06:30:49.484Z,1003.82
2019-05-26T06:31:49.732Z,1003.84
2019-05-26T06:32:49.474Z,1003.82
2019-05-26T06:33:49.415Z,1003.81
2019-05-26T06:34:49.406Z,1003.79
2019-05-26T06:35:49.481Z,1003.77
2019-05-26T06:36:49.485Z,1003.82
2019-05-26T06:37:49.496Z,1003.72
2019-05-26T06:38:49.505Z,1003.73
2019-05-26T06:39:49.440Z,1003.79
2019-05-26T06:40:49.392Z,1003.74
2019-05-26T06:41:49.440Z,1003.70
2019-05-26T06:42:49.503Z,1003.72
2019-05-26T06:43:49.507Z,1003.75
2019-05-26T06:44:53.635Z,1003.71
2019-05-26T06:45:49.430Z,1003.70
2019-05-26T06:46:49.515Z,1003.69
2019-05-26T06:47:49.510Z,1003.71
2019-05-26T06:48:49.431Z,1003.71
2019-05-26T06:49:49.503Z,1003.71
2019-05-26T06:50:49.437Z,1003.68
2019-05-26T06:51:49.440Z,1003.74
2019-05-26T06:52:49.509Z,1003.73
2019-05-26T06:53:49.505Z,1003.76
2019-05-26T06:54:49.506Z,1003.73
2019-05-26T06:55:49.515Z,1003.75
2019-05-26T06:56:49.450Z,1003.74
2019-05-26T06:57:49.443Z,1003.69
2019-05-26T06:58:49.404Z,1003.70
2019-05-26T06:59:49.459Z,1003.73
2019-05-26T07:00:49.464Z,1003.75
2019-05-26T07:01:49.491Z,1003.73
2019-05-26T07:02:49.391Z,1003.77
2019-05-26T07:03:49.465Z,1003.76
2019-05-26T07:04:49.503Z,1003.76
2019-05-26T07:05:49.432Z,1003.71
2019-05-26T07:06:49.395Z,1003.72
2019-05-26T07:07:49.504Z,1003.71
2019-05-26T07:08:49.508Z,1003.71
2019-05-26T07:09:49.447Z,1003.69
2019-05-26T07:10:49.423Z,1003.68
2019-05-26T07:11:57.313Z,1003.75
2019-05-26T07:12:49.435Z,1003.71
2019-05-26T07:13:49.508Z,1003.68
2019-05-26T07:14:49.512Z,1003.70
2019-05-26T07:15:49.513Z,1003.74
2019-05-26T07:16:49.438Z,1003.74
2019-05-26T07:17:49.448Z,1003.70
2019-05-26T07:18:49.399Z,1003.72
2019-05-26T07:19:49.518Z,1003.71
2019-05-26T07:20:49.521Z,1003.69
2019-05-26T07:21:49.449Z,1003.68
2019-05-26T07:22:49.555Z,1003.65
2019-05-26T07:23:49.415Z,1003.64
2019-05-26T07:24:49.454Z,1003.64
2019-05-26T07:25:49.430Z,1003.60
2019-05-26T07:26:49.524Z,1003.63
2019-05-26T07:27:49.475Z,1003.59
2019-05-26T07:28:49.446Z,1003.62
2019-05-26T07:29:49.494Z,1003.58
2019-05-26T07:30:49.487Z,1003.58
2019-05-26T07:31:49.535Z,1003.61
2019-05-26T07:32:49.516Z,1003.56
2019-05-26T07:33:49.490Z,1003.58
2019-05-26T07:34:49.551Z,1003.58
2019-05-26T07:35:50.001Z,1003.57
2019-05-26T07:36:49.456Z,1003.59
2019-05-26T07:37:49.461Z,1003.56
2019-05-26T07:38:49.531Z,1003.57
2019-05-26T07:39:49.530Z,1003.56
2019-05-26T07:40:49.456Z,1003.60
2019-05-26T07:42:08.269Z,1003.52
2019-05-26T07:42:49.470Z,1003.52
2019-05-26T07:43:49.542Z,1003.55
2019-05-26T07:44:49.486Z,1003.51
2019-05-26T07:45:49.460Z,1003.48
2019-05-26T07:46:49.463Z,1003.50
2019-05-26T07:47:49.491Z,1003.50
2019-05-26T07:48:49.546Z,1003.51
2019-05-26T07:49:49.601Z,1003.47
2019-05-26T07:50:49.481Z,1003.48
2019-05-26T07:51:49.552Z,1003.46
2019-05-26T07:52:49.438Z,1003.48
2019-05-26T07:53:49.495Z,1003.46
2019-05-26T07:54:49.478Z,1003.45
2019-05-26T07:55:49.562Z,1003.41
2019-05-26T07:56:49.555Z,1003.44
2019-05-26T07:57:49.509Z,1003.44
2019-05-26T07:58:49.428Z,1003.40
2019-05-26T07:59:49.456Z,1003.39
2019-05-26T08:00:49.434Z,1003.33
2019-05-26T08:01:49.545Z,1003.29
2019-05-26T08:02:49.497Z,1003.32
2019-05-26T08:03:49.548Z,1003.31
2019-05-26T08:04:49.551Z,1003.31
2019-05-26T08:05:49.537Z,1003.26
2019-05-26T08:06:49.426Z,1003.33
2019-05-26T08:07:49.495Z,1003.30
2019-05-26T08:08:49.498Z,1003.27
2019-05-26T08:09:49.562Z,1003.29
2019-05-26T08:10:49.569Z,1003.25
2019-05-26T08:11:49.503Z,1003.25
2019-05-26T08:12:49.565Z,1003.28
2019-05-26T08:13:49.496Z,1003.30
2019-05-26T08:14:49.586Z,1003.21
2019-05-26T08:15:49.497Z,1003.24
2019-05-26T08:16:49.569Z,1003.15
2019-05-26T08:17:49.568Z,1003.23
2019-05-26T08:18:49.514Z,1003.20
2019-05-26T08:19:49.509Z,1003.15
2019-05-26T08:20:49.574Z,1003.19
2019-05-26T08:21:49.572Z,1003.16
2019-05-26T08:22:49.572Z,1003.15
2019-05-26T08:23:49.507Z,1003.17
2019-05-26T08:24:49.572Z,1003.17
2019-05-26T08:25:49.544Z,1003.21
2019-05-26T08:26:49.518Z,1003.18
2019-05-26T08:27:49.562Z,1003.23
2019-05-26T08:28:49.570Z,1003.19
2019-05-26T08:29:49.579Z,1003.21
2019-05-26T08:30:49.498Z,1003.21
2019-05-26T08:31:49.567Z,1003.23
2019-05-26T08:32:49.509Z,1003.26
2019-05-26T08:33:49.574Z,1003.26
2019-05-26T08:34:49.577Z,1003.20
2019-05-26T08:35:49.571Z,1003.22
2019-05-26T08:36:49.545Z,1003.16
2019-05-26T08:37:49.585Z,1003.13
2019-05-26T08:38:49.584Z,1003.16
2019-05-26T08:39:49.518Z,1003.16
2019-05-26T08:40:49.534Z,1003.20
2019-05-26T08:41:49.591Z,1003.17
2019-05-26T08:42:49.583Z,1003.18
2019-05-26T08:43:49.589Z,1003.15
2019-05-26T08:44:49.593Z,1003.16
2019-05-26T08:45:49.521Z,1003.18
2019-05-26T08:46:49.518Z,1003.11
2019-05-26T08:47:49.583Z,1003.11
2019-05-26T08:48:49.576Z,1003.11
2019-05-26T08:49:49.515Z,1003.06
2019-05-26T08:50:49.470Z,1003.04
2019-05-26T08:51:49.583Z,1003.07
2019-05-26T08:52:49.578Z,1003.08
2019-05-26T08:53:49.481Z,1003.04
2019-05-26T08:54:49.519Z,1003.03
2019-05-26T08:55:49.580Z,1003.00
2019-05-26T08:56:49.515Z,1002.95
2019-05-26T08:57:49.592Z,1003.04
2019-05-26T08:58:49.594Z,1003.00
2019-05-26T08:59:49.596Z,1003.04
2019-05-26T09:00:49.504Z,1003.01
2019-05-26T09:01:49.567Z,1003.00
2019-05-26T09:02:49.535Z,1002.98
2019-05-26T09:03:49.593Z,1002.97
2019-05-26T09:04:49.506Z,1003.02
2019-05-26T09:05:49.520Z,1003.03
2019-05-26T09:06:49.503Z,1003.05
2019-05-26T09:07:49.615Z,1003.00
2019-05-26T09:08:49.504Z,1002.99
2019-05-26T09:09:49.615Z,1002.99
2019-05-26T09:10:49.614Z,1003.03
2019-05-26T09:11:49.542Z,1003.06
2019-05-26T09:13:00.186Z,1002.96
2019-05-26T09:13:49.549Z,1003.02
2019-05-26T09:14:49.614Z,1002.98
2019-05-26T09:15:49.619Z,1002.87
2019-05-26T09:16:49.639Z,1002.96
2019-05-26T09:17:49.559Z,1002.94
2019-05-26T09:18:49.614Z,1002.90
2019-05-26T09:19:49.612Z,1002.93
2019-05-26T09:20:49.624Z,1002.96
2019-05-26T09:21:49.615Z,1002.99
2019-05-26T09:22:49.548Z,1002.97
2019-05-26T09:23:49.559Z,1002.99
2019-05-26T09:24:49.616Z,1002.97
2019-05-26T09:25:49.627Z,1003.06
2019-05-26T09:26:49.552Z,1003.01
2019-05-26T09:27:49.619Z,1003.00
2019-05-26T09:28:49.562Z,1003.07
2019-05-26T09:29:49.551Z,1002.97
2019-05-26T09:30:49.575Z,1003.00
2019-05-26T09:31:49.563Z,1003.00
2019-05-26T09:32:49.560Z,1002.97
2019-05-26T09:33:49.557Z,1002.95
2019-05-26T09:34:49.572Z,1002.91
2019-05-26T09:35:49.628Z,1002.94
2019-05-26T09:36:49.629Z,1002.92
2019-05-26T09:37:49.628Z,1002.90
2019-05-26T09:38:49.688Z,1002.94
2019-05-26T09:39:49.650Z,1002.94
2019-05-26T09:40:49.629Z,1002.96
2019-05-26T09:41:49.633Z,1002.91
2019-05-26T09:42:49.631Z,1002.95
2019-05-26T09:43:49.634Z,1002.95
2019-05-26T09:44:49.544Z,1003.02
2019-05-26T09:45:49.637Z,1003.00
2019-05-26T09:46:49.737Z,1003.04
2019-05-26T09:47:49.621Z,1003.00
2019-05-26T09:48:49.553Z,1003.01
2019-05-26T09:49:49.553Z,1002.99
2019-05-26T09:50:49.623Z,1002.98
2019-05-26T09:51:49.601Z,1003.02
2019-05-26T09:52:49.631Z,1003.00
2019-05-26T09:54:01.264Z,1002.94
2019-05-26T09:54:49.565Z,1002.87
2019-05-26T09:55:49.627Z,1002.89
2019-05-26T09:56:49.580Z,1002.88
2019-05-26T09:57:49.643Z,1002.89
2019-05-26T09:58:49.573Z,1002.87
2019-05-26T09:59:49.583Z,1002.90
2019-05-26T10:00:49.644Z,1002.93
2019-05-26T10:01:49.706Z,1002.85
2019-05-26T10:02:49.579Z,1002.85
2019-05-26T10:03:49.575Z,1002.80
2019-05-26T10:04:49.590Z,1002.83
2019-05-26T10:05:49.652Z,1002.84
2019-05-26T10:06:49.583Z,1002.90
2019-05-26T10:07:49.579Z,1002.85
2019-05-26T10:08:49.529Z,1002.80
2019-05-26T10:09:49.573Z,1002.81
2019-05-26T10:10:49.637Z,1002.79
2019-05-26T10:11:49.652Z,1002.75
2019-05-26T10:12:49.568Z,1002.69
2019-05-26T10:13:49.555Z,1002.68
2019-05-26T10:14:49.645Z,1002.68
2019-05-26T10:15:49.646Z,1002.67
2019-05-26T10:16:49.573Z,1002.64
2019-05-26T10:17:49.664Z,1002.58
2019-05-26T10:18:49.596Z,1002.56
2019-05-26T10:19:49.587Z,1002.54
2019-05-26T10:20:49.667Z,1002.57
2019-05-26T10:21:49.667Z,1002.59
2019-05-26T10:22:49.592Z,1002.60
2019-05-26T10:23:52.890Z,1002.64
2019-05-26T10:24:49.882Z,1002.61
2019-05-26T10:25:49.602Z,1002.61
2019-05-26T10:26:49.661Z,1002.64
2019-05-26T10:27:49.667Z,1002.56
2019-05-26T10:28:49.666Z,1002.54
2019-05-26T10:29:49.602Z,1002.55
2019-05-26T10:30:49.744Z,1002.60
2019-05-26T10:31:49.668Z,1002.58
2019-05-26T10:32:49.613Z,1002.60
2019-05-26T10:33:49.670Z,1002.64
2019-05-26T10:34:49.602Z,1002.61
2019-05-26T10:35:49.686Z,1002.62
2019-05-26T10:36:49.607Z,1002.62
2019-05-26T10:37:49.601Z,1002.63
2019-05-26T10:38:49.625Z,1002.61
2019-05-26T10:39:49.621Z,1002.61
2019-05-26T10:40:49.594Z,1002.63
2019-05-26T10:41:49.535Z,1002.57
2019-05-26T10:42:49.501Z,1002.55
2019-05-26T10:43:49.675Z,1002.52
2019-05-26T10:44:49.532Z,1002.52
2019-05-26T10:45:49.649Z,1002.49
2019-05-26T10:46:49.628Z,1002.46
2019-05-26T10:47:49.618Z,1002.51
2019-05-26T10:48:49.687Z,1002.51
2019-05-26T10:49:49.685Z,1002.46
2019-05-26T10:50:49.710Z,1002.51
2019-05-26T10:51:49.679Z,1002.50
2019-05-26T10:52:49.685Z,1002.54
2019-05-26T10:53:49.687Z,1002.50
2019-05-26T10:54:49.644Z,1002.46
2019-05-26T10:55:49.687Z,1002.48
2019-05-26T10:56:49.685Z,1002.42
2019-05-26T10:57:49.683Z,1002.46
2019-05-26T10:58:49.687Z,1002.41
2019-05-26T10:59:49.625Z,1002.35
2019-05-26T11:00:49.618Z,1002.39
2019-05-26T11:01:49.664Z,1002.36
2019-05-26T11:02:49.691Z,1002.39
2019-05-26T11:03:49.683Z,1002.30
2019-05-26T11:04:49.621Z,1002.27
2019-05-26T11:05:49.623Z,1002.28
2019-05-26T11:06:49.700Z,1002.29
2019-05-26T11:07:49.574Z,1002.25
2019-05-26T11:08:49.720Z,1002.31
2019-05-26T11:09:49.608Z,1002.31
2019-05-26T11:10:49.576Z,1002.31
2019-05-26T11:11:49.613Z,1002.28
2019-05-26T11:12:49.626Z,1002.30
2019-05-26T11:14:01.917Z,1002.27
2019-05-26T11:14:49.615Z,1002.28
2019-05-26T11:15:49.655Z,1002.23
2019-05-26T11:16:49.627Z,1002.27
2019-05-26T11:17:49.627Z,1002.24
2019-05-26T11:18:49.633Z,1002.23
2019-05-26T11:19:49.645Z,1002.22
2019-05-26T11:20:49.681Z,1002.17
2019-05-26T11:21:49.636Z,1002.13
2019-05-26T11:22:49.639Z,1002.13
2019-05-26T11:23:49.635Z,1002.11
2019-05-26T11:24:49.631Z,1002.07
2019-05-26T11:25:49.638Z,1002.06
2019-05-26T11:26:49.604Z,1002.08
2019-05-26T11:27:49.654Z,1002.08
2019-05-26T11:28:49.656Z,1002.09
2019-05-26T11:29:49.686Z,1002.11
2019-05-26T11:30:49.659Z,1002.09
2019-05-26T11:31:49.543Z,1002.08
2019-05-26T11:32:49.581Z,1002.09
2019-05-26T11:33:49.565Z,1002.11
2019-05-26T11:35:01.080Z,1002.10
2019-05-26T11:35:49.664Z,1002.11
2019-05-26T11:36:49.630Z,1002.09
2019-05-26T11:37:49.717Z,1002.06
2019-05-26T11:38:49.718Z,1002.05
2019-05-26T11:39:49.713Z,1002.04
2019-05-26T11:40:49.733Z,1002.03
2019-05-26T11:41:54.951Z,1002.01
2019-05-26T11:42:49.653Z,1002.03
2019-05-26T11:43:49.787Z,1002.00
2019-05-26T11:44:49.652Z,1001.96
2019-05-26T11:45:49.670Z,1001.96
2019-05-26T11:46:49.755Z,1001.92
2019-05-26T11:47:49.721Z,1001.93
2019-05-26T11:48:49.731Z,1001.93
2019-05-26T11:49:49.657Z,1001.92
2019-05-26T11:50:49.733Z,1001.88
2019-05-26T11:51:49.737Z,1001.86
2019-05-26T11:52:49.728Z,1001.84
2019-05-26T11:53:49.664Z,1001.86
2019-05-26T11:54:49.663Z,1001.83
2019-05-26T11:55:49.725Z,1001.83
2019-05-26T11:56:49.731Z,1001.88
2019-05-26T11:57:49.737Z,1001.90
2019-05-26T11:58:49.797Z,1001.88
2019-05-26T11:59:49.738Z,1001.85
2019-05-26T12:00:49.798Z,1001.86
2019-05-26T12:01:49.729Z,1001.85
2019-05-26T12:02:49.665Z,1001.84
2019-05-26T12:03:49.733Z,1001.84
2019-05-26T12:04:49.667Z,1001.85
2019-05-26T12:05:49.724Z,1001.87